Ava, IL

6:58 AM CDT on August 29, 2014 (GMT -0500)
Southern Illinois | Change Station
CLOSE
Current Station
Airport
Location: Carbondale,
Elevation: 410 ft
Nearby Weather Stations

Elev 410 ft 37.78 °N, 89.25 °W | Updated 6 minutes ago

Mist
Mist
68 °F
Feels Like 68 °F
N
4
Wind Variable Wind from East

Today
High -- | Low -- °F
--% Chance of Precip.
Yesterday
High -- | Low -- °F
Precip. -- in
6:25 AM 7:31 PM
Waxing Crescent, 14% visible
Pressure 29.97 in
Visibility 0.8 miles
Clouds
Dew Point 67 °F
Humidity 96%
Rainfall 0.00 in
Snow Depth Not available.
UV Not available.
Pollen 10.60 out of 12
Air Quality Not available.
Flu Activity Not available.
METAR KMDH 291152Z AUTO 10003KT 3/4SM BR VV007 20/19 A2998 RMK AO2 SLP149 70002 T02000194 10222 20200 53006

More Conditions Fewer Conditions

Pressure 29.97 in
Visibility 0.8 miles
Clouds
Dew Point 67 °F
Humidity 96%
Rainfall 0.00 in
Snow Depth Not available.
UV Not available.
Pollen 10.60 out of 12
Air Quality Not available.
Flu Activity Not available.
METAR KMDH 291152Z AUTO 10003KT 3/4SM BR VV007 20/19 A2998 RMK AO2 SLP149 70002 T02000194 10222 20200 53006

More Conditions Fewer Conditions

10-Day Weather Forecast

Almanac

Astronomy

Aug. 29, 2014 Rise Set
Actual Time 6:25 AM CDT 7:31 PM CDT
Civil Twilight 5:58 AM CDT 7:58 PM CDT
Nautical Twilight 5:25 AM CDT 8:30 PM CDT
Astronomical Twilight 4:52 AM CDT 9:04 PM CDT
Moon 10:10 AM CDT 9:34 PM CDT
Length of Visible Light 14h 00m
Length of Day
13h 06m
Tomorrow will be 2m 18s shorter.
Waxing Crescent, 14% of the Moon is Illuminated
Today
Waxing Crescent
Sep 2
First Quarter
Sep 8
Full
Sep 15
Last Quarter
Sep 24
New

Today's Extremes

State Highs State Lows

Community

WunderPhotos

Upload Photos

1,748,216 photos uploaded!

Nearby

Snow Depth

Station Depth Elevation
No new snow has been reported.

Earthquake Activity

City Distance Mag. Time & Date
No recent earthquake activity has been reported nearby.
Minimum magnitude displayed is 2.5.

Coastal Water Temperatures

Place Temperature
No Stations Reporting

Nearby Weather Stations